ADDS METAR Data INFO
IDs: Format: Raw Decoded Include TAF

Data at: 0802 UTC 23 Jul 2018

KGZS 230755Z AUTO 00000KT 10SM OVC024 21/20 A2982 RMK A01
KGZS 230735Z AUTO 33003KT 10SM OVC024 21/20 A2981 RMK A01
KGZS 230715Z AUTO 33003KT 10SM FEW012 OVC021 21/20 A2981 RMK A01
KGZS 230655Z AUTO 34004KT 10SM FEW012 OVC022 21/20 A2981 RMK A01
KGZS 230635Z AUTO 00000KT 10SM OVC020 21/20 A2981 RMK A01
KGZS 230615Z AUTO 33004G11KT 10SM BKN018 BKN042 OVC075 21/20 A2981 RMK A01
KGZS 230555Z AUTO 33004KT 10SM SCT026 BKN044 OVC075 22/20 A2981 RMK A01
KGZS 230535Z AUTO VRB06G12KT 10SM SCT016 BKN021 OVC026 22/20 A2981 RMK A01
KGZS 230515Z AUTO 35006G14KT 10SM SCT020 BKN025 OVC060 23/20 A2982 RMK A01
KGZS 230455Z AUTO 00000KT 10SM SCT036 BKN065 OVC075 23/20 A2982 RMK A01
KGZS 230435Z AUTO 00000KT 10SM BKN055 OVC070 22/21 A2983 RMK A01
KGZS 230415Z AUTO 00000KT 10SM BKN050 OVC055 23/21 A2983 RMK A01
KGZS 230355Z AUTO 00000KT 10SM BKN050 OVC055 22/20 A2983 RMK A01
KGZS 230335Z AUTO 00000KT 10SM SCT049 BKN060 OVC075 23/20 A2983 RMK A01
KGZS 230315Z AUTO 00000KT 10SM FEW048 SCT055 OVC075 23/20 A2984 RMK A01
KGZS 230255Z AUTO 00000KT 10SM SCT047 BKN060 OVC070 24/20 A2984 RMK A01
KGZS 230235Z AUTO 00000KT 10SM BKN055 OVC070 24/20 A2984 RMK A01
KGZS 230215Z AUTO 00000KT 10SM OVC070 24/20 A2984 RMK A01
KGZS 230155Z AUTO 32004KT 10SM OVC075 24/20 A2984 RMK A01
KGZS 230135Z AUTO 32006KT 10SM BKN080 24/19 A2983 RMK A01
KGZS 230115Z AUTO 32004KT 10SM CLR 24/19 A2982 RMK A01
KGZS 230055Z AUTO 33006G11KT 10SM SCT080 25/19 A2982 RMK A01
KGZS 230035Z AUTO 34007KT 10SM OVC075 25/19 A2981 RMK A01
KGZS 230015Z AUTO 36011KT 10SM OVC075 26/19 A2981 RMK A01
KGZS 222355Z AUTO 34009G14KT 10SM OVC075 26/19 A2980 RMK A01
KGZS 222335Z AUTO 32008KT 10SM BKN075 26/19 A2979 RMK A01
KGZS 222315Z AUTO 31013KT 10SM SCT075 27/19 A2979 RMK A01
KGZS 222255Z AUTO 32007KT 10SM FEW055 BKN075 27/19 A2979 RMK A01
KGZS 222235Z AUTO 34009G16KT 310V010 10SM FEW038 FEW047 SCT060 27/19 A2979 RMK A01
KGZS 222215Z AUTO 35006G13KT 10SM SCT038 SCT049 BKN085 28/20 A2979 RMK A01
KGZS 222155Z AUTO 34011KT 10SM BKN041 BKN055 BKN080 28/20 A2978 RMK A01
KGZS 222135Z AUTO 33009G17KT 10SM SCT041 SCT047 BKN055 28/19 A2978 RMK A01
KGZS 222115Z AUTO 31009G19KT 10SM FEW041 FEW080 29/19 A2978 RMK A01
KGZS 222055Z AUTO 32012G18KT 10SM FEW041 SCT080 29/20 A2978 RMK A01
KGZS 222035Z AUTO 32011KT 10SM SCT040 BKN080 29/20 A2978 RMK A01
KGZS 222015Z AUTO 29009KT 270V330 10SM FEW041 SCT080 29/20 A2978 RMK A01
KGZS 221955Z AUTO 31009KT 10SM FEW080 28/20 A2979 RMK A01
KGZS 221935Z AUTO 31009G15KT 10SM BKN080 29/19 A2979 RMK A01
KGZS 221915Z AUTO 31012KT 10SM FEW055 BKN080 29/19 A2979 RMK A01
KGZS 221855Z AUTO 32011KT 290V360 10SM FEW040 SCT055 BKN075 29/20 A2979 RMK A01
KGZS 221835Z AUTO 31011KT 280V340 10SM FEW040 SCT047 BKN075 29/19 A2980 RMK A01
KGZS 221815Z AUTO 32009KT 10SM FEW041 SCT060 BKN075 28/20 A2980 RMK A01
KGZS 221755Z AUTO 32009G18KT 300V360 10SM FEW049 SCT075 29/19 A2981 RMK A01
KGZS 221735Z AUTO 30009G16KT 10SM FEW039 BKN050 BKN060 28/19 A2982 RMK A01
KGZS 221715Z AUTO 32008KT 10SM FEW039 SCT048 BKN060 29/19 A2982 RMK A01
KGZS 221655Z AUTO 32009G15KT 10SM SCT038 SCT050 29/20 A2983 RMK A01
KGZS 221635Z AUTO 32010G17KT 10SM BKN038 BKN050 28/19 A2983 RMK A01
KGZS 221615Z AUTO 30012G18KT 10SM SCT034 BKN041 BKN047 28/20 A2984 RMK A01
KGZS 221555Z AUTO 29008KT 10SM BKN033 BKN043 28/20 A2984 RMK A01
KGZS 221535Z AUTO 31009KT 10SM FEW029 BKN035 BKN043 27/20 A2984 RMK A01
KGZS 221515Z AUTO 33007G14KT 310V010 10SM SCT028 BKN032 27/20 A2984 RMK A01
KGZS 221455Z AUTO 32008KT 10SM BKN027 BKN032 27/20 A2984 RMK A01
KGZS 221435Z AUTO 30009KT 10SM FEW028 26/20 A2984 RMK A01
KGZS 221415Z AUTO VRB06KT 10SM CLR 26/20 A2984 RMK A01
KGZS 221355Z AUTO 30007KT 10SM CLR 26/20 A2985 RMK A01
KGZS 221335Z AUTO 32006KT 10SM CLR 26/21 A2985 RMK A01
KGZS 221315Z AUTO 29005KT 10SM CLR 25/21 A2985 RMK A01
KGZS 221255Z AUTO 00000KT 10SM CLR 24/21 A2984 RMK A01
KGZS 221235Z AUTO 00000KT 10SM CLR 23/21 A2984 RMK A01
KGZS 221215Z AUTO 00000KT 10SM CLR 21/21 A2984 RMK A01
KGZS 221155Z AUTO 00000KT 9SM CLR 20/20 A2984 RMK A01
KGZS 221135Z AUTO 00000KT 8SM CLR 19/19 A2984 RMK A01
KGZS 221115Z AUTO 00000KT 9SM CLR 18/18 A2984 RMK A01
KGZS 221055Z AUTO 00000KT 4SM BR CLR 18/18 A2984 RMK A01
KGZS 221035Z AUTO 00000KT 10SM CLR 19/19 A2984 RMK A01
KGZS 221015Z AUTO 00000KT 1/2SM BR BKN033 BKN039 19/19 A2984 RMK A01
KGZS 220955Z AUTO 00000KT 1 3/4SM BR BKN033 BKN039 19/19 A2983 RMK A01
KGZS 220935Z AUTO 00000KT 2SM BR FEW035 FEW042 19/19 A2983 RMK A01 VIS 3/4V5
KGZS 220915Z AUTO 00000KT 9SM FEW035 FEW041 FEW047 19/19 A2983 RMK A01
KGZS 220855Z AUTO 00000KT 6SM BR FEW037 FEW046 19/19 A2983 RMK A01
KGZS 220835Z AUTO 00000KT 5SM BR FEW043 19/19 A2983 RMK A01
KGZS 220815Z AUTO 00000KT 8SM CLR 19/19 A2983 RMK A01
KGZS 220755Z AUTO 00000KT 10SM CLR 20/20 A2983 RMK A01
KGZS 220735Z AUTO 00000KT 10SM CLR 20/19 A2983 RMK A01
KGZS 220715Z AUTO 00000KT 10SM FEW040 FEW050 20/20 A2983 RMK A01
KGZS 220655Z AUTO 00000KT 10SM SCT038 SCT070 20/20 A2984 RMK A01
KGZS 220635Z AUTO 00000KT 10SM FEW036 SCT042 BKN065 20/20 A2984 RMK A01
KGZS 220615Z AUTO 00000KT 10SM BKN065 BKN075 21/20 A2985 RMK A01
KGZS 220555Z AUTO 00000KT 10SM OVC070 20/20 A2985 RMK A01
KGZS 220535Z AUTO 00000KT 10SM OVC065 21/20 A2985 RMK A01
KGZS 220515Z AUTO 00000KT 10SM OVC065 21/20 A2985 RMK A01
KGZS 220455Z AUTO 00000KT 10SM BKN065 BKN080 21/20 A2985 RMK A01
KGZS 220435Z AUTO 00000KT 10SM SCT080 21/20 A2985 RMK A01
KGZS 220415Z AUTO 00000KT 10SM CLR 22/20 A2985 RMK A01
KGZS 220355Z AUTO 00000KT 10SM FEW070 SCT080 22/20 A2985 RMK A01
KGZS 220335Z AUTO 00000KT 10SM FEW060 FEW070 22/20 A2986 RMK A01
KGZS 220315Z AUTO 00000KT 10SM CLR 22/20 A2986 RMK A01
KGZS 220255Z AUTO 00000KT 10SM FEW070 23/21 A2986 RMK A01
KGZS 220235Z AUTO 00000KT 10SM CLR 23/21 A2986 RMK A01
KGZS 220215Z AUTO 00000KT 10SM CLR 24/21 A2985 RMK A01
KGZS 220155Z AUTO 00000KT 10SM CLR 24/21 A2985 RMK A01
KGZS 220135Z AUTO 00000KT 10SM FEW070 25/21 A2985 RMK A01
KGZS 220115Z AUTO 00000KT 10SM BKN070 26/20 A2984 RMK A01
KGZS 220055Z AUTO 00000KT 10SM BKN070 27/20 A2984 RMK A01
KGZS 220035Z AUTO 32004KT 10SM CLR 28/20 A2983 RMK A01
KGZS 220015Z AUTO 32006KT 10SM SCT055 SCT070 29/20 A2983 RMK A01
KGZS 212355Z AUTO 32004G12KT 10SM SCT055 SCT070 29/20 A2982 RMK A01
KGZS 212335Z AUTO 32008KT 10SM FEW055 30/19 A2981 RMK A01
KGZS 212315Z AUTO 32006G11KT 10SM BKN055 BKN070 29/19 A2982 RMK A01
KGZS 212255Z AUTO 33007G15KT 10SM SCT060 SCT070 30/19 A2982 RMK A01
KGZS 212235Z AUTO 31008KT 10SM CLR 31/18 A2982 RMK A01
KGZS 212215Z AUTO 32008G16KT 300V360 10SM CLR 31/19 A2982 RMK A01
KGZS 212155Z AUTO 33007G18KT 10SM CLR 31/18 A2982 RMK A01
KGZS 212135Z AUTO 31011KT 10SM CLR 32/18 A2982 RMK A01
KGZS 212115Z AUTO 31011G18KT 10SM CLR 32/18 A2981 RMK A01
KGZS 212055Z AUTO 30013KT 10SM SCT047 SCT055 32/20 A2981 RMK A01
KGZS 212035Z AUTO 32008G15KT 270V360 10SM SCT048 SCT060 32/21 A2982 RMK A01
KGZS 212015Z AUTO 32010G20KT 10SM CLR 32/20 A2982 RMK A01